createdAt,value
2022-12-08T00:07:25.571Z,3.6
2022-12-08T00:17:25.795Z,3.6
2022-12-08T00:27:26.246Z,3.6
2022-12-08T00:37:26.344Z,3.6
2022-12-08T00:47:27.329Z,3.6
2022-12-08T00:57:27.864Z,3.6
2022-12-08T01:07:28.666Z,3.6
2022-12-08T01:17:29.549Z,3.7
2022-12-08T01:27:30.036Z,3.7
2022-12-08T01:37:30.622Z,3.7
2022-12-08T01:47:30.824Z,3.8
2022-12-08T01:57:31.065Z,3.7
2022-12-08T02:07:31.887Z,3.7
2022-12-08T02:17:32.802Z,3.7
2022-12-08T02:27:32.921Z,3.7
2022-12-08T02:37:33.781Z,3.7
2022-12-08T02:57:34.722Z,3.7
2022-12-08T03:07:35.795Z,3.7
2022-12-08T03:27:36.876Z,3.8
2022-12-08T03:37:37.832Z,3.8
2022-12-08T03:47:38.028Z,3.8
2022-12-08T03:57:39.038Z,3.8
2022-12-08T04:07:39.345Z,3.8
2022-12-08T04:17:39.773Z,3.8
2022-12-08T04:27:40.164Z,3.8
2022-12-08T04:37:41.109Z,3.8
2022-12-08T04:47:41.700Z,3.7
2022-12-08T04:57:41.966Z,3.7
2022-12-08T05:07:42.297Z,3.7
2022-12-08T05:17:42.916Z,3.6
2022-12-08T05:27:43.487Z,3.7
2022-12-08T05:37:44.326Z,3.6
2022-12-08T05:47:45.370Z,3.6
2022-12-08T05:57:46.469Z,3.6
2022-12-08T06:17:47.737Z,3.6
2022-12-08T06:27:47.854Z,3.6
2022-12-08T06:37:48.004Z,3.5
2022-12-08T06:47:48.858Z,3.5
2022-12-08T06:57:51.198Z,3.5
2022-12-08T07:07:49.976Z,3.4
2022-12-08T07:17:53.641Z,3.4
2022-12-08T07:37:51.229Z,3.3
2022-12-08T07:47:51.897Z,3.3
2022-12-08T07:57:52.435Z,3.4
2022-12-08T08:07:52.916Z,3.4
2022-12-08T08:17:53.762Z,3.4
2022-12-08T08:27:54.040Z,3.4
2022-12-08T08:37:54.864Z,3.4
2022-12-08T08:47:55.452Z,3.5
2022-12-08T08:57:55.869Z,3.5
2022-12-08T09:07:56.082Z,3.5
2022-12-08T09:17:56.685Z,3.5
2022-12-08T09:27:57.678Z,3.5
2022-12-08T09:37:57.860Z,3.5
2022-12-08T09:47:57.988Z,3.5
2022-12-08T09:48:19.915Z,3.5
2022-12-08T09:58:04.285Z,3.5
2022-12-08T10:18:05.136Z,3.4
2022-12-08T10:38:06.494Z,3.4
2022-12-08T11:08:08.023Z,3.6
2022-12-08T11:48:10.663Z,3.5
2022-12-08T12:08:11.709Z,3.6
2022-12-08T12:18:16.405Z,3.7
2022-12-08T13:08:14.927Z,3.7
2022-12-08T13:28:15.978Z,3.7
2022-12-08T13:38:16.207Z,3.7
2022-12-08T13:58:17.942Z,3.7
2022-12-08T14:18:19.453Z,3.7
2022-12-08T14:58:22.049Z,3.6
2022-12-08T15:08:23.003Z,3.5
2022-12-08T15:18:23.897Z,3.4
2022-12-08T15:28:28.074Z,3.4
2022-12-08T15:38:24.372Z,3.4
2022-12-08T15:48:24.891Z,3.4
2022-12-08T15:58:52.789Z,3.4
2022-12-08T16:08:44.934Z,3.4
2022-12-08T16:28:53.201Z,3.3
2022-12-08T16:38:28.276Z,3.3
2022-12-08T16:58:29.855Z,3.4
2022-12-08T17:08:29.971Z,3.3
2022-12-08T17:18:30.321Z,3.3
2022-12-08T17:38:31.028Z,3.3
2022-12-08T17:48:31.803Z,3.3
2022-12-08T17:58:32.347Z,3.3
2022-12-08T18:08:33.230Z,3.3
2022-12-08T18:18:33.468Z,3.3
2022-12-08T18:28:34.199Z,3.3
2022-12-08T18:38:35.167Z,3.2
2022-12-08T18:48:35.381Z,3.2
2022-12-08T18:58:35.566Z,3.2
2022-12-08T19:08:35.696Z,3.2
2022-12-08T19:18:36.438Z,3.2
2022-12-08T19:28:36.536Z,3.2
2022-12-08T19:48:36.971Z,3.1
2022-12-08T19:58:37.514Z,3
2022-12-08T20:08:38.293Z,2.8
2022-12-08T20:18:38.980Z,2.7
2022-12-08T20:28:39.843Z,2.6
2022-12-08T20:38:40.545Z,2.5
2022-12-08T20:48:41.737Z,2.4
2022-12-08T20:58:42.041Z,2.4
2022-12-08T21:08:42.373Z,2.4
2022-12-08T21:18:42.609Z,2.4
2022-12-08T21:28:42.974Z,2.4
2022-12-08T21:38:43.690Z,2.3
2022-12-08T21:58:44.309Z,1.9
2022-12-08T22:08:44.851Z,1.8
2022-12-08T22:18:44.930Z,1.8
2022-12-08T22:28:45.660Z,1.7
2022-12-08T22:38:45.831Z,1.7
2022-12-08T22:48:46.519Z,1.7
2022-12-08T22:58:47.188Z,1.8
2022-12-08T23:08:47.331Z,1.7
2022-12-08T23:18:47.934Z,1.7
2022-12-08T23:28:49.103Z,1.5
2022-12-08T23:38:49.243Z,1.4
2022-12-08T23:48:49.521Z,1.3
2022-12-08T23:58:50.024Z,1.5
